createdAt,value
2022-08-25T00:00:18.006Z,20.51
2022-08-25T00:03:04.496Z,20.45
2022-08-25T00:05:33.639Z,20.40
2022-08-25T00:08:03.868Z,20.35
2022-08-25T00:10:35.122Z,20.29
2022-08-25T00:13:05.027Z,20.23
2022-08-25T00:15:33.637Z,20.18
2022-08-25T00:18:02.216Z,20.14
2022-08-25T00:20:33.446Z,20.09
2022-08-25T00:23:01.743Z,20.03
2022-08-25T00:25:29.997Z,19.98
2022-08-25T00:27:59.307Z,19.92
2022-08-25T00:30:27.674Z,19.86
2022-08-25T00:32:57.435Z,19.82
2022-08-25T00:35:26.480Z,19.76
2022-08-25T00:37:54.680Z,19.72
2022-08-25T00:40:25.660Z,19.69
2022-08-25T00:42:54.724Z,19.66
2022-08-25T00:45:23.473Z,19.63
2022-08-25T00:47:51.658Z,19.59
2022-08-25T00:50:22.741Z,19.54
2022-08-25T00:52:57.839Z,19.52
2022-08-25T00:55:31.020Z,19.50
2022-08-25T00:58:21.315Z,19.46
2022-08-25T01:00:53.068Z,19.42
2022-08-25T01:03:33.015Z,19.40
2022-08-25T01:06:04.532Z,19.38
2022-08-25T01:08:33.676Z,19.35
2022-08-25T01:11:07.204Z,19.33
2022-08-25T01:13:44.365Z,19.32
2022-08-25T01:16:15.146Z,19.32
2022-08-25T01:18:50.453Z,19.31
2022-08-25T01:21:20.511Z,19.32
2022-08-25T01:23:50.478Z,19.31
2022-08-25T01:26:32.650Z,19.28
2022-08-25T01:29:21.638Z,19.26
2022-08-25T01:32:01.789Z,19.23
2022-08-25T01:34:34.679Z,19.20
2022-08-25T01:37:03.234Z,19.20
2022-08-25T01:39:34.095Z,19.20
2022-08-25T01:42:11.792Z,19.19
2022-08-25T01:44:43.494Z,19.19
2022-08-25T01:47:13.364Z,19.18
2022-08-25T01:49:41.868Z,19.18
2022-08-25T01:52:25.074Z,19.17
2022-08-25T01:54:53.244Z,19.16
2022-08-25T01:57:22.653Z,19.14
2022-08-25T01:59:50.935Z,19.11
2022-08-25T02:02:19.010Z,19.08
2022-08-25T02:04:47.995Z,19.05
2022-08-25T02:07:16.266Z,19.05
2022-08-25T02:09:44.650Z,19.04
2022-08-25T02:12:13.131Z,19.02
2022-08-25T02:14:41.697Z,18.99
2022-08-25T02:17:10.303Z,18.96
2022-08-25T02:19:38.386Z,18.93
2022-08-25T02:22:06.652Z,18.89
2022-08-25T02:24:35.430Z,18.85
2022-08-25T02:27:04.190Z,18.81
2022-08-25T02:29:33.014Z,18.77
2022-08-25T02:32:01.289Z,18.74
2022-08-25T02:34:29.467Z,18.70
2022-08-25T02:36:58.018Z,18.66
2022-08-25T02:39:26.116Z,18.65
2022-08-25T02:41:54.809Z,18.63
2022-08-25T02:44:22.905Z,18.60
2022-08-25T02:46:51.051Z,18.56
2022-08-25T02:49:19.136Z,18.51
2022-08-25T02:51:47.297Z,18.46
2022-08-25T02:54:16.389Z,18.41
2022-08-25T02:56:44.670Z,18.35
2022-08-25T02:59:12.841Z,18.31
2022-08-25T03:01:40.930Z,18.26
2022-08-25T03:04:09.295Z,18.23
2022-08-25T03:06:37.895Z,18.19
2022-08-25T03:09:05.945Z,18.17
2022-08-25T03:11:34.269Z,18.13
2022-08-25T03:14:02.399Z,18.09
2022-08-25T03:16:31.857Z,18.06
2022-08-25T03:19:01.105Z,18.04
2022-08-25T03:21:29.917Z,18.03
2022-08-25T03:23:59.016Z,18.04
2022-08-25T03:26:45.489Z,18.03
2022-08-25T03:29:14.175Z,18.05
2022-08-25T03:31:44.940Z,18.04
2022-08-25T03:34:16.977Z,18.03
2022-08-25T03:36:47.241Z,18.02
2022-08-25T03:39:16.123Z,18.00
2022-08-25T03:41:44.788Z,17.98
2022-08-25T03:44:14.179Z,17.96
2022-08-25T03:46:47.775Z,17.95
2022-08-25T03:49:23.143Z,17.94
2022-08-25T03:51:54.984Z,17.92
2022-08-25T03:54:26.053Z,17.91
2022-08-25T03:56:55.050Z,17.91
2022-08-25T03:59:23.294Z,17.91
2022-08-25T04:01:55.099Z,17.92
2022-08-25T04:04:23.881Z,17.93
2022-08-25T04:06:53.149Z,17.95
2022-08-25T04:09:21.930Z,17.96
2022-08-25T04:11:52.886Z,17.98
2022-08-25T04:14:23.862Z,17.99
2022-08-25T04:16:53.275Z,17.98
2022-08-25T04:19:22.313Z,17.97
2022-08-25T04:21:51.868Z,17.95
2022-08-25T04:24:25.311Z,17.91
2022-08-25T04:26:54.209Z,17.89
2022-08-25T04:29:24.041Z,17.86
2022-08-25T04:31:53.962Z,17.85
2022-08-25T04:34:29.555Z,17.85
2022-08-25T04:37:06.570Z,17.85
2022-08-25T04:39:35.041Z,17.85
2022-08-25T04:42:03.644Z,17.85
2022-08-25T04:44:32.399Z,17.87
2022-08-25T04:47:01.621Z,17.89
2022-08-25T04:49:30.096Z,17.92
2022-08-25T04:51:58.269Z,17.96
2022-08-25T04:54:28.360Z,17.99
2022-08-25T04:56:58.457Z,18.02
2022-08-25T04:59:29.943Z,18.06
2022-08-25T05:02:02.766Z,18.10
2022-08-25T05:04:33.835Z,18.16
2022-08-25T05:07:03.967Z,18.22
2022-08-25T05:09:33.409Z,18.28
2022-08-25T05:12:02.837Z,18.33
2022-08-25T05:14:33.241Z,18.38
2022-08-25T05:17:02.279Z,18.43
2022-08-25T05:19:31.447Z,18.48
2022-08-25T05:21:59.624Z,18.52
2022-08-25T05:24:28.348Z,18.56
2022-08-25T05:26:57.488Z,18.60
2022-08-25T05:29:26.077Z,18.65
2022-08-25T05:31:54.723Z,18.71
2022-08-25T05:34:23.135Z,18.77
2022-08-25T05:36:51.724Z,18.83
2022-08-25T05:39:19.815Z,18.90
2022-08-25T05:41:47.915Z,18.97
2022-08-25T05:44:20.844Z,19.03
2022-08-25T05:46:50.186Z,19.08
2022-08-25T05:49:18.769Z,19.16
2022-08-25T05:51:46.909Z,19.28
2022-08-25T05:54:15.185Z,19.38
2022-08-25T05:56:43.420Z,19.48
2022-08-25T05:59:11.641Z,19.57
2022-08-25T06:01:58.383Z,19.67
2022-08-25T06:04:26.623Z,19.75
2022-08-25T06:06:56.030Z,19.84
2022-08-25T06:09:24.445Z,19.91
2022-08-25T06:11:55.142Z,19.99
2022-08-25T06:14:25.365Z,20.06
2022-08-25T06:16:53.534Z,20.12
2022-08-25T06:19:23.739Z,20.18
2022-08-25T06:21:56.917Z,20.23
2022-08-25T06:24:27.511Z,20.28
2022-08-25T06:26:57.090Z,20.35
2022-08-25T06:29:25.676Z,20.42
2022-08-25T06:31:53.775Z,20.49
2022-08-25T06:34:23.957Z,20.57
2022-08-25T06:36:53.281Z,20.63
2022-08-25T06:39:22.424Z,20.68
2022-08-25T06:41:55.175Z,20.74
2022-08-25T06:44:28.032Z,20.80
2022-08-25T06:46:56.227Z,20.84
2022-08-25T06:49:29.278Z,20.88
2022-08-25T06:51:59.343Z,20.92
2022-08-25T06:54:27.529Z,20.98
2022-08-25T06:56:55.657Z,21.04
2022-08-25T06:59:26.430Z,21.07
2022-08-25T07:02:03.215Z,21.13
2022-08-25T07:04:33.710Z,21.21
2022-08-25T07:07:02.202Z,21.25
2022-08-25T07:09:31.074Z,21.30
2022-08-25T07:11:59.558Z,21.35
2022-08-25T07:14:27.728Z,21.39
2022-08-25T07:16:55.999Z,21.47
2022-08-25T07:19:24.098Z,21.56
2022-08-25T07:21:54.355Z,21.64
2022-08-25T07:24:23.428Z,21.72
2022-08-25T07:26:52.333Z,21.79
2022-08-25T07:29:26.572Z,21.86
2022-08-25T07:32:03.625Z,21.92
2022-08-25T07:34:52.069Z,21.97
2022-08-25T07:40:14.388Z,22.07
2022-08-25T07:42:42.562Z,22.12
2022-08-25T07:45:12.882Z,22.17
2022-08-25T07:47:41.083Z,22.21
2022-08-25T07:50:12.415Z,22.28
2022-08-25T07:52:41.947Z,22.38
2022-08-25T07:55:11.146Z,22.49
2022-08-25T07:57:41.029Z,22.60
2022-08-25T08:00:11.202Z,22.71
2022-08-25T08:02:44.585Z,22.83
2022-08-25T08:05:14.546Z,22.95
2022-08-25T08:07:43.921Z,23.05
2022-08-25T08:13:03.894Z,23.25
2022-08-25T08:15:33.062Z,23.36
2022-08-25T08:18:01.446Z,23.46
2022-08-25T08:20:32.721Z,23.56
2022-08-25T08:23:11.859Z,23.66
2022-08-25T08:25:40.095Z,23.77
2022-08-25T08:28:08.388Z,23.87
2022-08-25T08:30:39.208Z,23.99
2022-08-25T08:33:11.236Z,24.10
2022-08-25T08:35:41.808Z,24.21
2022-08-25T08:38:17.224Z,24.32
2022-08-25T08:42:07.714Z,24.43
2022-08-25T08:44:35.931Z,24.57
2022-08-25T08:47:14.259Z,24.68
2022-08-25T08:50:23.972Z,24.79
2022-08-25T08:53:06.701Z,24.93
2022-08-25T08:55:38.869Z,25.07
2022-08-25T08:58:26.192Z,25.19
2022-08-25T09:00:58.492Z,25.33
2022-08-25T09:03:43.389Z,25.46
2022-08-25T09:06:26.147Z,25.58
2022-08-25T09:08:57.766Z,25.70
2022-08-25T09:11:53.242Z,25.83
2022-08-25T09:14:33.677Z,25.96
2022-08-25T09:17:30.559Z,26.09
2022-08-25T09:20:22.253Z,26.23
2022-08-25T09:23:05.578Z,26.37
2022-08-25T09:25:53.003Z,26.50
2022-08-25T09:28:26.812Z,26.62
2022-08-25T09:31:06.018Z,26.75
2022-08-25T09:33:35.649Z,26.89
2022-08-25T09:36:06.272Z,27.02
2022-08-25T09:38:37.673Z,27.17
2022-08-25T09:41:08.095Z,27.31
2022-08-25T09:43:44.776Z,27.43
2022-08-25T09:46:16.139Z,27.57
2022-08-25T09:48:55.987Z,27.72
2022-08-25T09:51:43.034Z,27.86
2022-08-25T09:54:14.022Z,28.00
2022-08-25T09:56:57.263Z,28.13
2022-08-25T09:59:34.978Z,28.26
2022-08-25T10:02:25.866Z,28.38
2022-08-25T10:04:55.190Z,28.52
2022-08-25T10:07:35.990Z,28.67
2022-08-25T10:10:18.332Z,28.82
2022-08-25T10:12:51.253Z,28.96
2022-08-25T10:15:29.580Z,29.08
2022-08-25T10:18:29.577Z,29.18
2022-08-25T10:21:11.203Z,29.31
2022-08-25T10:23:52.818Z,29.46
2022-08-25T10:26:53.349Z,29.58
2022-08-25T10:29:27.340Z,29.70
2022-08-25T10:32:06.236Z,29.79
2022-08-25T10:35:17.540Z,29.88
2022-08-25T10:38:13.971Z,30.01
2022-08-25T10:41:02.734Z,30.16
2022-08-25T10:43:41.234Z,30.26
2022-08-25T10:46:16.560Z,30.38
2022-08-25T10:49:02.738Z,30.51
2022-08-25T10:51:51.024Z,30.65
2022-08-25T10:54:25.834Z,30.77
2022-08-25T10:57:02.375Z,30.88
2022-08-25T10:59:46.900Z,30.97
2022-08-25T11:02:52.754Z,31.07
2022-08-25T11:05:41.017Z,31.21
2022-08-25T11:08:12.758Z,31.34
2022-08-25T11:10:44.518Z,31.45
2022-08-25T11:13:43.470Z,31.56
2022-08-25T11:16:20.760Z,31.70
2022-08-25T11:19:18.226Z,31.80
2022-08-25T11:22:28.383Z,31.91
2022-08-25T11:24:57.313Z,32.03
2022-08-25T11:27:44.019Z,32.13
2022-08-25T11:30:15.093Z,32.25
2022-08-25T11:32:47.899Z,32.34
2022-08-25T11:35:19.309Z,32.40
2022-08-25T11:38:18.499Z,32.45
2022-08-25T11:41:21.533Z,32.53
2022-08-25T11:44:04.818Z,32.60
2022-08-25T11:47:01.078Z,32.67
2022-08-25T11:49:31.783Z,32.76
2022-08-25T11:52:02.913Z,32.86
2022-08-25T11:54:43.149Z,32.95
2022-08-25T11:57:17.153Z,33.08
2022-08-25T11:59:49.652Z,33.19
2022-08-25T12:02:47.399Z,33.33
2022-08-25T12:05:15.696Z,33.49
2022-08-25T12:07:46.798Z,33.57
2022-08-25T12:10:22.700Z,33.60
2022-08-25T12:13:04.793Z,33.59
2022-08-25T12:15:58.260Z,33.61
2022-08-25T12:18:29.651Z,33.61
2022-08-25T12:20:57.560Z,33.62
2022-08-25T12:23:29.524Z,33.70
2022-08-25T12:26:04.391Z,33.81
2022-08-25T12:29:14.715Z,33.91
2022-08-25T12:31:47.284Z,34.07
2022-08-25T12:34:40.082Z,34.21
2022-08-25T12:37:21.260Z,34.33
2022-08-25T12:39:49.446Z,34.37
2022-08-25T12:42:40.137Z,34.33
2022-08-25T12:45:15.006Z,34.25
2022-08-25T12:47:47.680Z,34.18
2022-08-25T12:50:42.036Z,34.11
2022-08-25T12:53:39.034Z,34.08
2022-08-25T12:56:25.719Z,34.00
2022-08-25T12:59:02.573Z,33.96
2022-08-25T13:01:44.072Z,33.95
2022-08-25T13:04:44.555Z,33.98
2022-08-25T13:07:33.997Z,34.13
2022-08-25T13:10:32.819Z,34.28
2022-08-25T13:13:10.539Z,34.43
2022-08-25T13:15:45.242Z,34.49
2022-08-25T13:18:15.215Z,34.52
2022-08-25T13:20:47.407Z,34.56
2022-08-25T13:23:26.495Z,34.61
2022-08-25T13:25:58.378Z,34.71
2022-08-25T13:28:31.095Z,34.79
2022-08-25T13:31:17.666Z,34.90
2022-08-25T13:33:54.829Z,34.98
2022-08-25T13:36:54.251Z,35.02
2022-08-25T13:39:52.596Z,35.03
2022-08-25T13:42:17.609Z,35.05
2022-08-25T13:44:52.401Z,35.03
2022-08-25T13:47:45.312Z,35.07
2022-08-25T13:50:39.627Z,35.12
2022-08-25T13:53:15.642Z,35.17
2022-08-25T13:55:52.244Z,35.21
2022-08-25T13:58:24.346Z,35.26
2022-08-25T14:01:23.739Z,35.28
2022-08-25T14:04:32.591Z,35.34
2022-08-25T14:07:09.599Z,35.40
2022-08-25T14:09:49.672Z,35.46
2022-08-25T14:12:37.895Z,35.53
2022-08-25T14:15:17.691Z,35.51
2022-08-25T14:18:00.870Z,35.51
2022-08-25T14:20:31.685Z,35.55
2022-08-25T14:23:05.418Z,35.57
2022-08-25T14:25:40.691Z,35.55
2022-08-25T14:28:14.444Z,35.55
2022-08-25T14:30:52.317Z,35.63
2022-08-25T14:33:24.784Z,35.74
2022-08-25T14:35:55.258Z,35.82
2022-08-25T14:38:23.534Z,35.90
2022-08-25T14:40:54.004Z,35.93
2022-08-25T14:43:23.720Z,35.94
2022-08-25T14:45:53.051Z,35.97
2022-08-25T14:48:32.921Z,36.00
2022-08-25T14:51:01.813Z,36.02
2022-08-25T14:53:30.293Z,36.03
2022-08-25T14:55:59.047Z,36.02
2022-08-25T14:58:33.976Z,36.00
2022-08-25T15:01:03.388Z,35.99
2022-08-25T15:03:38.331Z,35.95
2022-08-25T15:06:07.381Z,35.91
2022-08-25T15:08:58.213Z,35.89
2022-08-25T15:11:27.163Z,35.85
2022-08-25T15:13:57.382Z,35.79
2022-08-25T15:16:35.069Z,35.71
2022-08-25T15:19:08.551Z,35.62
2022-08-25T15:21:37.946Z,35.53
2022-08-25T15:24:09.387Z,35.43
2022-08-25T15:26:46.582Z,35.34
2022-08-25T15:29:14.895Z,35.25
2022-08-25T15:31:44.252Z,35.15
2022-08-25T15:34:13.579Z,35.06
2022-08-25T15:36:42.492Z,34.94
2022-08-25T15:39:11.244Z,34.81
2022-08-25T15:41:39.868Z,34.68
2022-08-25T15:44:12.428Z,34.56
2022-08-25T15:46:41.776Z,34.43
2022-08-25T15:49:15.628Z,34.30
2022-08-25T15:51:49.026Z,34.18
2022-08-25T15:54:16.904Z,34.04
2022-08-25T15:56:46.089Z,33.91
2022-08-25T15:59:14.619Z,33.77
2022-08-25T16:01:46.467Z,33.62
2022-08-25T16:04:15.020Z,33.46
2022-08-25T16:06:42.990Z,33.31
2022-08-25T16:09:11.387Z,33.19
2022-08-25T16:11:39.664Z,33.06
2022-08-25T16:14:07.915Z,32.92
2022-08-25T16:16:36.578Z,32.81
2022-08-25T16:19:05.596Z,32.68
2022-08-25T16:21:36.997Z,32.57
2022-08-25T16:24:10.363Z,32.46
2022-08-25T16:26:48.081Z,32.34
2022-08-25T16:29:17.753Z,32.23
2022-08-25T16:31:53.455Z,32.11
2022-08-25T16:34:24.658Z,31.98
2022-08-25T16:36:53.636Z,31.85
2022-08-25T16:39:23.902Z,31.71
2022-08-25T16:41:53.128Z,31.56
2022-08-25T16:44:22.901Z,31.42
2022-08-25T16:46:54.630Z,31.26
2022-08-25T16:49:24.423Z,31.10
2022-08-25T16:51:57.793Z,30.91
2022-08-25T16:54:45.167Z,30.72
2022-08-25T16:57:13.677Z,30.50
2022-08-25T16:59:43.862Z,30.28
2022-08-25T17:02:12.445Z,30.07
2022-08-25T17:04:40.956Z,29.88
2022-08-25T17:07:09.022Z,29.68
2022-08-25T17:09:37.150Z,29.49
2022-08-25T17:12:05.860Z,29.32
2022-08-25T17:14:33.824Z,29.14
2022-08-25T17:17:03.466Z,28.99
2022-08-25T17:19:35.005Z,28.83
2022-08-25T17:22:03.473Z,28.68
2022-08-25T17:24:34.882Z,28.53
2022-08-25T17:27:03.405Z,28.38
2022-08-25T17:29:31.598Z,28.23
2022-08-25T17:32:00.110Z,28.09
2022-08-25T17:34:29.205Z,27.95
2022-08-25T17:36:58.455Z,27.82
2022-08-25T17:39:27.779Z,27.67
2022-08-25T17:41:56.437Z,27.55
2022-08-25T17:44:24.846Z,27.45
2022-08-25T17:46:53.196Z,27.32
2022-08-25T17:49:22.551Z,27.20
2022-08-25T17:51:51.158Z,27.09
2022-08-25T17:54:20.062Z,26.99
2022-08-25T17:56:48.867Z,26.89
2022-08-25T17:59:18.987Z,26.77
2022-08-25T18:01:49.603Z,26.68
2022-08-25T18:04:23.589Z,26.57
2022-08-25T18:06:55.520Z,26.47
2022-08-25T18:09:23.998Z,26.38
2022-08-25T18:11:52.759Z,26.28
2022-08-25T18:14:25.292Z,26.17
2022-08-25T18:16:54.309Z,26.06
2022-08-25T18:19:22.422Z,25.97
2022-08-25T18:21:51.927Z,25.88
2022-08-25T18:24:20.617Z,25.79
2022-08-25T18:26:51.757Z,25.70
2022-08-25T18:29:21.037Z,25.61
2022-08-25T18:31:49.864Z,25.52
2022-08-25T18:34:21.525Z,25.42
2022-08-25T18:36:50.507Z,25.34
2022-08-25T18:39:37.594Z,25.25
2022-08-25T18:42:06.854Z,25.15
2022-08-25T18:44:35.069Z,25.05
2022-08-25T18:47:07.521Z,24.97
2022-08-25T18:49:37.636Z,24.89
2022-08-25T18:52:06.175Z,24.81
2022-08-25T18:54:35.968Z,24.72
2022-08-25T18:57:04.977Z,24.64
2022-08-25T18:59:37.283Z,24.57
2022-08-25T19:02:06.648Z,24.51
2022-08-25T19:04:34.699Z,24.45
2022-08-25T19:07:03.694Z,24.40
2022-08-25T19:09:32.810Z,24.33
2022-08-25T19:12:01.006Z,24.25
2022-08-25T19:14:29.134Z,24.17
2022-08-25T19:16:58.820Z,24.08
2022-08-25T19:19:27.574Z,23.98
2022-08-25T19:21:55.908Z,23.89
2022-08-25T19:24:24.185Z,23.81
2022-08-25T19:26:54.679Z,23.74
2022-08-25T19:29:23.915Z,23.67
2022-08-25T19:31:53.376Z,23.60
2022-08-25T19:34:28.391Z,23.52
2022-08-25T19:37:00.814Z,23.44
2022-08-25T19:39:30.561Z,23.37
2022-08-25T19:41:58.701Z,23.30
2022-08-25T19:44:28.111Z,23.22
2022-08-25T19:46:57.139Z,23.14
2022-08-25T19:49:31.825Z,23.09
2022-08-25T19:52:04.278Z,23.03
2022-08-25T19:54:37.719Z,22.97
2022-08-25T19:57:07.968Z,22.91
2022-08-25T19:59:42.961Z,22.85
2022-08-25T20:02:22.288Z,22.77
2022-08-25T20:04:53.748Z,22.69
2022-08-25T20:07:24.904Z,22.61
2022-08-25T20:09:54.682Z,22.53
2022-08-25T20:12:24.721Z,22.47
2022-08-25T20:14:54.572Z,22.43
2022-08-25T20:17:26.274Z,22.36
2022-08-25T20:20:04.699Z,22.31
2022-08-25T20:22:33.698Z,22.26
2022-08-25T20:25:13.425Z,22.23
2022-08-25T20:27:47.970Z,22.20
2022-08-25T20:30:22.326Z,22.16
2022-08-25T20:32:51.588Z,22.10
2022-08-25T20:35:21.558Z,22.05
2022-08-25T20:37:56.854Z,21.99
2022-08-25T20:40:27.267Z,21.92
2022-08-25T20:42:57.139Z,21.84
2022-08-25T20:45:25.361Z,21.74
2022-08-25T20:47:53.802Z,21.65
2022-08-25T20:50:23.695Z,21.58
2022-08-25T20:52:56.739Z,21.51
2022-08-25T20:55:25.737Z,21.44
2022-08-25T20:57:54.994Z,21.38
2022-08-25T21:00:23.677Z,21.33
2022-08-25T21:02:53.461Z,21.28
2022-08-25T21:05:21.635Z,21.26
2022-08-25T21:07:49.703Z,21.22
2022-08-25T21:10:18.594Z,21.16
2022-08-25T21:12:46.643Z,21.11
2022-08-25T21:15:18.328Z,21.08
2022-08-25T21:17:54.553Z,21.05
2022-08-25T21:20:24.235Z,21.02
2022-08-25T21:22:53.509Z,20.97
2022-08-25T21:25:22.362Z,20.90
2022-08-25T21:27:50.363Z,20.83
2022-08-25T21:30:18.664Z,20.77
2022-08-25T21:32:53.326Z,20.71
2022-08-25T21:35:23.360Z,20.66
2022-08-25T21:37:53.269Z,20.60
2022-08-25T21:40:23.157Z,20.55
2022-08-25T21:42:52.764Z,20.50
2022-08-25T21:45:21.786Z,20.45
2022-08-25T21:47:50.188Z,20.41
2022-08-25T21:50:20.795Z,20.38
2022-08-25T21:52:54.494Z,20.36
2022-08-25T21:55:24.006Z,20.36
2022-08-25T21:57:52.897Z,20.34
2022-08-25T22:00:22.755Z,20.30
2022-08-25T22:02:51.035Z,20.27
2022-08-25T22:05:19.052Z,20.22
2022-08-25T22:07:47.103Z,20.16
2022-08-25T22:10:17.739Z,20.11
2022-08-25T22:12:48.135Z,20.05
2022-08-25T22:15:17.831Z,20.00
2022-08-25T22:17:48.197Z,19.95
2022-08-25T22:20:18.236Z,19.89
2022-08-25T22:22:46.437Z,19.84
2022-08-25T22:25:14.816Z,19.79
2022-08-25T22:27:43.173Z,19.74
2022-08-25T22:30:13.749Z,19.70
2022-08-25T22:32:42.645Z,19.65
2022-08-25T22:35:14.163Z,19.63
2022-08-25T22:37:43.314Z,19.60
2022-08-25T22:40:12.177Z,19.57
2022-08-25T22:42:42.309Z,19.53
2022-08-25T22:45:12.938Z,19.49
2022-08-25T22:47:41.313Z,19.44
2022-08-25T22:50:09.898Z,19.40
2022-08-25T22:52:38.533Z,19.38
2022-08-25T22:55:11.902Z,19.35
2022-08-25T22:57:41.513Z,19.32
2022-08-25T23:00:14.016Z,19.26
2022-08-25T23:02:43.386Z,19.20
2022-08-25T23:05:13.633Z,19.17
2022-08-25T23:07:42.274Z,19.14
2022-08-25T23:10:12.466Z,19.09
2022-08-25T23:12:43.787Z,19.06
2022-08-25T23:15:12.977Z,19.02
2022-08-25T23:17:42.602Z,18.99
2022-08-25T23:20:29.948Z,18.96
2022-08-25T23:22:58.917Z,18.90
2022-08-25T23:25:27.135Z,18.86
2022-08-25T23:27:55.097Z,18.82
2022-08-25T23:30:27.133Z,18.78
2022-08-25T23:32:55.401Z,18.73
2022-08-25T23:35:23.395Z,18.69
2022-08-25T23:37:51.598Z,18.66
2022-08-25T23:40:19.731Z,18.65
2022-08-25T23:42:48.201Z,18.62
2022-08-25T23:45:16.707Z,18.59
2022-08-25T23:47:44.629Z,18.56
2022-08-25T23:50:12.866Z,18.52
2022-08-25T23:52:40.956Z,18.48
2022-08-25T23:55:10.052Z,18.44
2022-08-25T23:57:38.322Z,18.40
